createdAt,value
2022-12-31T00:00:21.355Z,3.53
2022-12-31T00:02:48.249Z,5.20
2022-12-31T00:05:15.174Z,3.38
2022-12-31T00:10:08.383Z,7.82
2022-12-31T00:12:35.177Z,3.53
2022-12-31T00:15:03.726Z,4.15
2022-12-31T00:17:30.582Z,4.15
2022-12-31T00:19:57.448Z,3.42
2022-12-31T00:22:24.316Z,4.00
2022-12-31T00:24:51.159Z,3.85
2022-12-31T00:27:18.037Z,3.13
2022-12-31T00:29:44.793Z,4.00
2022-12-31T00:32:11.622Z,5.43
2022-12-31T00:34:38.467Z,4.63
2022-12-31T00:37:05.308Z,2.42
2022-12-31T00:39:32.030Z,3.53
2022-12-31T00:41:59.045Z,3.22
2022-12-31T00:44:25.857Z,3.47
2022-12-31T00:46:52.666Z,2.90
2022-12-31T00:49:19.634Z,3.78
2022-12-31T00:51:46.774Z,2.83
2022-12-31T00:54:14.874Z,5.93
2022-12-31T00:56:41.732Z,4.10
2022-12-31T00:59:08.545Z,2.30
2022-12-31T01:01:39.472Z,4.57
2022-12-31T01:04:18.054Z,3.85
2022-12-31T01:06:45.685Z,3.92
2022-12-31T01:09:15.227Z,5.13
2022-12-31T01:11:43.014Z,5.50
2022-12-31T01:14:17.035Z,4.82
2022-12-31T01:16:48.330Z,4.95
2022-12-31T01:19:22.530Z,3.17
2022-12-31T01:21:50.968Z,3.28
2022-12-31T01:24:18.611Z,5.88
2022-12-31T01:26:46.911Z,2.50
2022-12-31T01:29:14.662Z,3.42
2022-12-31T01:31:41.787Z,1.52
2022-12-31T01:34:09.185Z,1.85
2022-12-31T01:36:37.987Z,5.47
2022-12-31T01:39:08.414Z,6.43
2022-12-31T01:41:43.099Z,3.42
2022-12-31T01:44:12.808Z,2.13
2022-12-31T01:46:52.166Z,1.80
2022-12-31T01:49:35.959Z,2.08
2022-12-31T01:52:12.067Z,1.10
2022-12-31T01:54:46.900Z,1.95
2022-12-31T01:57:15.855Z,2.80
2022-12-31T01:59:45.271Z,1.55
2022-12-31T02:02:15.670Z,1.85
2022-12-31T02:04:42.933Z,1.77
2022-12-31T02:07:12.163Z,3.08
2022-12-31T02:09:42.165Z,2.05
2022-12-31T02:12:10.556Z,3.75
2022-12-31T02:14:43.973Z,2.53
2022-12-31T02:17:30.137Z,6.28
2022-12-31T02:20:41.743Z,1.75
2022-12-31T02:24:05.484Z,1.00
2022-12-31T02:27:01.216Z,1.08
2022-12-31T02:30:13.321Z,1.15
2022-12-31T02:32:40.002Z,0.98
2022-12-31T02:35:20.543Z,1.90
2022-12-31T02:37:57.058Z,1.33
2022-12-31T02:40:24.090Z,2.58
2022-12-31T02:42:55.237Z,1.20
2022-12-31T02:45:32.392Z,1.52
2022-12-31T02:48:32.214Z,1.33
2022-12-31T02:51:19.684Z,2.03
2022-12-31T02:54:11.565Z,2.65
2022-12-31T02:57:00.705Z,1.52
2022-12-31T03:00:00.801Z,1.67
2022-12-31T03:02:33.577Z,3.22
2022-12-31T03:05:03.696Z,1.60
2022-12-31T03:07:33.116Z,1.70
2022-12-31T03:10:01.308Z,1.23
2022-12-31T03:12:48.333Z,0.93
2022-12-31T03:15:25.050Z,2.63
2022-12-31T03:18:43.646Z,1.67
2022-12-31T03:21:32.464Z,2.50
2022-12-31T03:24:17.731Z,1.35
2022-12-31T03:26:44.550Z,3.65
2022-12-31T03:29:11.322Z,5.82
2022-12-31T03:31:38.189Z,2.83
2022-12-31T03:34:04.926Z,3.35
2022-12-31T03:36:31.731Z,2.33
2022-12-31T03:38:58.508Z,2.10
2022-12-31T03:41:25.307Z,4.43
2022-12-31T03:43:52.056Z,2.90
2022-12-31T03:46:18.824Z,3.47
2022-12-31T03:48:45.551Z,4.30
2022-12-31T03:51:12.325Z,4.18
2022-12-31T03:53:39.087Z,6.63
2022-12-31T03:56:06.171Z,6.93
2022-12-31T03:58:32.934Z,6.05
2022-12-31T04:00:59.774Z,6.53
2022-12-31T04:03:27.385Z,6.05
2022-12-31T04:05:55.938Z,5.75
2022-12-31T04:08:24.333Z,5.68
2022-12-31T04:10:51.213Z,5.38
2022-12-31T04:13:18.032Z,6.30
2022-12-31T04:15:45.261Z,6.60
2022-12-31T04:18:13.251Z,5.75
2022-12-31T04:20:40.095Z,6.00
2022-12-31T04:23:06.854Z,6.80
2022-12-31T04:25:33.651Z,5.80
2022-12-31T04:28:00.440Z,5.20
2022-12-31T04:30:27.237Z,5.07
2022-12-31T04:32:53.979Z,4.18
2022-12-31T04:35:20.845Z,5.03
2022-12-31T04:37:47.581Z,3.90
2022-12-31T04:40:14.390Z,3.95
2022-12-31T04:42:41.872Z,4.53
2022-12-31T04:45:10.239Z,4.95
2022-12-31T04:47:36.975Z,3.92
2022-12-31T04:50:04.685Z,4.30
2022-12-31T04:52:34.542Z,4.22
2022-12-31T04:55:04.230Z,5.10
2022-12-31T04:57:30.940Z,5.18
2022-12-31T04:59:57.712Z,4.45
2022-12-31T05:02:24.609Z,4.50
2022-12-31T05:04:51.471Z,3.95
2022-12-31T05:07:18.299Z,3.72
2022-12-31T05:09:45.054Z,4.10
2022-12-31T05:12:11.770Z,6.05
2022-12-31T05:14:38.496Z,5.20
2022-12-31T05:17:05.307Z,2.88
2022-12-31T05:19:32.128Z,4.55
2022-12-31T05:22:17.394Z,3.22
2022-12-31T05:24:44.166Z,3.33
2022-12-31T05:27:10.957Z,3.17
2022-12-31T05:29:37.681Z,5.00
2022-12-31T05:32:04.600Z,4.22
2022-12-31T05:34:31.322Z,4.25
2022-12-31T05:36:58.105Z,5.25
2022-12-31T05:39:24.915Z,4.88
2022-12-31T05:41:51.633Z,4.80
2022-12-31T05:44:18.409Z,4.65
2022-12-31T05:46:45.407Z,5.10
2022-12-31T05:49:12.329Z,4.63
2022-12-31T05:51:39.066Z,4.15
2022-12-31T05:54:06.045Z,3.38
2022-12-31T05:56:32.796Z,5.70
2022-12-31T05:59:00.693Z,6.13
2022-12-31T06:01:27.596Z,4.80
2022-12-31T06:03:54.452Z,5.35
2022-12-31T06:06:21.331Z,5.93
2022-12-31T06:08:52.202Z,3.80
2022-12-31T06:11:19.004Z,4.47
2022-12-31T06:13:45.761Z,4.93
2022-12-31T06:16:12.879Z,5.55
2022-12-31T06:18:42.378Z,5.60
2022-12-31T06:21:09.461Z,3.50
2022-12-31T06:23:36.325Z,4.63
2022-12-31T06:26:05.046Z,2.15
2022-12-31T06:28:31.798Z,1.92
2022-12-31T06:31:05.160Z,3.30
2022-12-31T06:33:33.556Z,2.35
2022-12-31T06:36:04.690Z,2.35
2022-12-31T06:38:34.923Z,1.80
2022-12-31T06:41:06.105Z,3.45
2022-12-31T06:43:34.065Z,2.58
2022-12-31T06:46:05.443Z,3.03
2022-12-31T06:48:33.023Z,1.35
2022-12-31T06:51:19.046Z,1.73
2022-12-31T06:53:48.079Z,4.53
2022-12-31T06:56:26.527Z,3.20
2022-12-31T06:58:58.287Z,2.63
2022-12-31T07:01:44.516Z,0.98
2022-12-31T07:04:26.207Z,1.85
2022-12-31T07:07:09.097Z,2.95
2022-12-31T07:10:16.495Z,3.33
2022-12-31T07:12:55.735Z,2.55
2022-12-31T07:15:59.241Z,2.47
2022-12-31T07:21:37.607Z,3.55
2022-12-31T07:24:11.812Z,3.30
2022-12-31T07:26:57.030Z,3.40
2022-12-31T07:29:33.123Z,2.67
2022-12-31T07:32:21.173Z,1.30
2022-12-31T07:35:09.044Z,2.17
2022-12-31T07:38:32.570Z,2.17
2022-12-31T07:41:40.018Z,4.55
2022-12-31T07:44:46.489Z,3.00
2022-12-31T07:47:26.643Z,5.53
2022-12-31T07:49:55.182Z,4.13
2022-12-31T07:52:22.739Z,2.00
2022-12-31T07:54:50.003Z,4.38
2022-12-31T07:57:20.402Z,3.67
2022-12-31T08:00:06.441Z,4.25
2022-12-31T08:02:59.840Z,2.85
2022-12-31T08:08:32.737Z,4.00
2022-12-31T08:11:35.398Z,4.18
2022-12-31T08:14:02.834Z,2.40
2022-12-31T08:16:30.634Z,7.30
2022-12-31T08:18:57.815Z,3.08
2022-12-31T08:21:35.172Z,4.07
2022-12-31T08:24:36.241Z,2.95
2022-12-31T08:27:28.585Z,4.82
2022-12-31T08:30:15.240Z,2.85
2022-12-31T08:33:23.516Z,4.18
2022-12-31T08:36:18.270Z,2.70
2022-12-31T08:39:30.272Z,5.45
2022-12-31T08:42:00.302Z,3.53
2022-12-31T08:44:52.137Z,2.63
2022-12-31T08:47:48.709Z,1.25
2022-12-31T08:50:18.836Z,3.13
2022-12-31T08:52:48.033Z,3.35
2022-12-31T08:55:17.279Z,3.15
2022-12-31T08:58:18.556Z,2.78
2022-12-31T09:00:52.989Z,2.55
2022-12-31T09:03:40.648Z,3.15
2022-12-31T09:06:59.778Z,6.20
2022-12-31T09:10:15.151Z,3.85
2022-12-31T09:13:03.231Z,3.72
2022-12-31T09:15:35.702Z,4.43
2022-12-31T09:18:03.314Z,4.35
2022-12-31T09:20:43.048Z,3.60
2022-12-31T09:23:12.317Z,4.20
2022-12-31T09:26:06.943Z,5.07
2022-12-31T09:28:39.576Z,3.22
2022-12-31T09:31:16.573Z,3.10
2022-12-31T09:33:52.632Z,1.90
2022-12-31T09:36:52.744Z,3.17
2022-12-31T09:39:43.923Z,2.88
2022-12-31T09:42:31.964Z,1.77
2022-12-31T09:45:38.564Z,3.65
2022-12-31T09:48:48.076Z,2.53
2022-12-31T09:51:31.036Z,5.68
2022-12-31T09:54:06.719Z,3.67
2022-12-31T09:56:45.761Z,4.50
2022-12-31T09:59:46.302Z,3.78
2022-12-31T10:02:39.345Z,3.72
2022-12-31T10:05:39.844Z,3.03
2022-12-31T10:08:40.454Z,2.70
2022-12-31T10:11:38.735Z,6.82
2022-12-31T10:14:22.468Z,3.55
2022-12-31T10:17:14.564Z,4.13
2022-12-31T10:20:02.160Z,3.70
2022-12-31T10:23:20.291Z,3.80
2022-12-31T10:26:16.127Z,4.15
2022-12-31T10:29:01.168Z,6.20
2022-12-31T10:32:05.219Z,6.97
2022-12-31T10:34:46.277Z,4.80
2022-12-31T10:37:25.596Z,5.68
2022-12-31T10:40:17.183Z,4.68
2022-12-31T10:43:08.432Z,5.38
2022-12-31T10:45:53.207Z,6.20
2022-12-31T10:48:58.564Z,6.20
2022-12-31T10:51:49.807Z,3.45
2022-12-31T10:54:31.434Z,4.50
2022-12-31T10:57:25.781Z,4.63
2022-12-31T11:00:20.041Z,2.90
2022-12-31T11:03:51.017Z,5.78
2022-12-31T11:06:45.101Z,6.25
2022-12-31T11:09:43.077Z,8.32
2022-12-31T11:12:46.903Z,5.50
2022-12-31T11:15:20.925Z,5.35
2022-12-31T11:18:37.319Z,5.78
2022-12-31T11:21:40.931Z,4.45
2022-12-31T11:24:22.085Z,5.20
2022-12-31T11:26:57.804Z,5.63
2022-12-31T11:29:48.564Z,4.70
2022-12-31T11:32:51.199Z,6.43
2022-12-31T11:36:19.712Z,6.47
2022-12-31T11:39:33.986Z,5.45
2022-12-31T11:42:23.693Z,3.90
2022-12-31T11:45:15.077Z,5.57
2022-12-31T11:48:31.245Z,5.40
2022-12-31T11:51:37.138Z,5.35
2022-12-31T11:54:21.773Z,3.75
2022-12-31T11:59:24.395Z,5.78
2022-12-31T12:02:19.040Z,5.32
2022-12-31T12:04:50.244Z,5.75
2022-12-31T12:07:17.819Z,5.47
2022-12-31T12:09:45.888Z,4.65
2022-12-31T12:12:13.115Z,9.35
2022-12-31T12:14:43.324Z,8.05
2022-12-31T12:17:17.982Z,7.57
2022-12-31T12:19:54.483Z,7.13
2022-12-31T12:22:26.068Z,8.40
2022-12-31T12:25:20.822Z,8.13
2022-12-31T12:27:48.431Z,3.38
2022-12-31T12:30:28.665Z,6.38
2022-12-31T12:32:59.691Z,6.82
2022-12-31T12:35:32.029Z,10.55
2022-12-31T12:38:02.774Z,8.15
2022-12-31T12:40:34.143Z,5.05
2022-12-31T12:43:03.601Z,5.10
2022-12-31T12:45:50.853Z,6.45
2022-12-31T12:48:41.931Z,5.22
2022-12-31T12:51:44.504Z,8.55
2022-12-31T12:54:48.380Z,5.47
2022-12-31T12:57:33.015Z,4.65
2022-12-31T13:00:25.059Z,8.82
2022-12-31T13:03:28.412Z,6.47
2022-12-31T13:06:22.285Z,7.45
2022-12-31T13:09:27.043Z,4.07
2022-12-31T13:13:22.030Z,5.55
2022-12-31T13:15:45.050Z,4.72
2022-12-31T13:18:41.241Z,9.40
2022-12-31T13:21:21.300Z,4.07
2022-12-31T13:24:06.217Z,6.97
2022-12-31T13:29:20.859Z,4.35
2022-12-31T13:31:51.458Z,4.57
2022-12-31T13:34:29.166Z,6.85
2022-12-31T13:37:03.209Z,6.63
2022-12-31T13:39:38.849Z,5.72
2022-12-31T13:42:27.103Z,4.38
2022-12-31T13:45:10.645Z,7.57
2022-12-31T13:48:07.169Z,5.95
2022-12-31T13:50:48.180Z,7.05
2022-12-31T13:53:22.634Z,7.97
2022-12-31T13:55:58.331Z,6.63
2022-12-31T13:58:49.946Z,9.93
2022-12-31T14:01:34.063Z,10.43
2022-12-31T14:04:59.281Z,4.90
2022-12-31T14:07:45.347Z,7.00
2022-12-31T14:10:20.701Z,4.72
2022-12-31T14:13:02.831Z,8.63
2022-12-31T14:15:46.057Z,7.00
2022-12-31T14:18:54.020Z,9.20
2022-12-31T14:22:02.724Z,6.13
2022-12-31T14:24:49.775Z,6.40
2022-12-31T14:27:27.202Z,8.02
2022-12-31T14:30:13.393Z,9.88
2022-12-31T14:32:43.122Z,7.95
2022-12-31T14:35:36.169Z,10.05
2022-12-31T14:38:33.796Z,7.78
2022-12-31T14:41:26.481Z,6.90
2022-12-31T14:44:26.979Z,8.63
2022-12-31T14:47:30.713Z,5.93
2022-12-31T14:50:29.671Z,6.30
2022-12-31T14:53:02.386Z,16.90
2022-12-31T14:55:43.345Z,7.72
2022-12-31T14:58:38.840Z,6.57
2022-12-31T15:01:22.312Z,10.52
2022-12-31T15:03:52.019Z,7.35
2022-12-31T15:06:24.775Z,11.48
2022-12-31T15:09:18.696Z,7.80
2022-12-31T15:12:09.679Z,7.57
2022-12-31T15:15:23.022Z,5.47
2022-12-31T15:18:02.692Z,6.50
2022-12-31T15:21:16.961Z,6.80
2022-12-31T15:23:46.169Z,17.00
2022-12-31T15:26:26.037Z,5.63
2022-12-31T15:29:30.148Z,5.82
2022-12-31T15:32:02.396Z,7.30
2022-12-31T15:34:35.793Z,7.90
2022-12-31T15:37:07.042Z,5.95
2022-12-31T15:39:42.776Z,9.82
2022-12-31T15:42:49.156Z,6.63
2022-12-31T15:45:32.046Z,7.68
2022-12-31T15:48:03.283Z,6.35
2022-12-31T15:50:31.308Z,7.68
2022-12-31T15:53:05.246Z,7.57
2022-12-31T15:55:52.079Z,7.93
2022-12-31T15:58:25.868Z,10.48
2022-12-31T16:01:04.359Z,12.88
2022-12-31T16:03:33.346Z,12.52
2022-12-31T16:06:21.217Z,10.15
2022-12-31T16:08:49.750Z,10.40
2022-12-31T16:11:18.650Z,11.43
2022-12-31T16:13:52.630Z,8.15
2022-12-31T16:16:31.828Z,9.23
2022-12-31T16:19:00.545Z,6.65
2022-12-31T16:21:36.312Z,5.38
2022-12-31T16:24:28.053Z,6.53
2022-12-31T16:27:01.141Z,7.10
2022-12-31T16:29:28.498Z,4.97
2022-12-31T16:31:55.431Z,7.38
2022-12-31T16:34:26.872Z,9.13
2022-12-31T16:37:15.495Z,8.45
2022-12-31T16:39:57.233Z,11.57
2022-12-31T16:42:28.799Z,6.40
2022-12-31T16:44:57.567Z,13.20
2022-12-31T16:47:40.817Z,5.53
2022-12-31T16:50:17.784Z,12.55
2022-12-31T16:52:55.859Z,11.23
2022-12-31T16:55:27.496Z,7.30
2022-12-31T16:58:16.861Z,7.45
2022-12-31T17:00:45.069Z,12.32
2022-12-31T17:03:23.693Z,13.52
2022-12-31T17:06:12.782Z,6.53
2022-12-31T17:08:44.132Z,12.25
2022-12-31T17:11:55.961Z,11.82
2022-12-31T17:14:30.072Z,10.30
2022-12-31T17:17:04.103Z,8.88
2022-12-31T17:19:51.769Z,12.88
2022-12-31T17:22:35.720Z,14.77
2022-12-31T17:25:07.570Z,20.13
2022-12-31T17:27:36.847Z,19.00
2022-12-31T17:30:32.860Z,13.20
2022-12-31T17:33:04.043Z,14.15
2022-12-31T17:35:37.397Z,11.05
2022-12-31T17:38:22.323Z,10.18
2022-12-31T17:41:05.786Z,17.23
2022-12-31T17:43:36.856Z,18.80
2022-12-31T17:46:16.048Z,8.70
2022-12-31T17:48:49.795Z,12.38
2022-12-31T17:51:16.611Z,8.82
2022-12-31T17:53:51.361Z,9.75
2022-12-31T17:56:20.475Z,10.73
2022-12-31T17:58:53.466Z,13.13
2022-12-31T18:01:23.825Z,10.45
2022-12-31T18:03:50.747Z,8.30
2022-12-31T18:06:21.495Z,15.48
2022-12-31T18:08:48.392Z,7.45
2022-12-31T18:11:20.124Z,8.85
2022-12-31T18:13:47.677Z,10.70
2022-12-31T18:16:16.425Z,10.85
2022-12-31T18:18:45.244Z,10.68
2022-12-31T18:21:34.733Z,10.18
2022-12-31T18:26:30.573Z,9.52
2022-12-31T18:29:01.198Z,8.80
2022-12-31T18:31:30.855Z,8.00
2022-12-31T18:33:59.220Z,9.98
2022-12-31T18:36:28.969Z,7.25
2022-12-31T18:38:55.926Z,9.13
2022-12-31T18:41:27.672Z,11.35
2022-12-31T18:43:55.360Z,8.13
2022-12-31T18:46:25.064Z,11.10
2022-12-31T18:48:52.058Z,7.95
2022-12-31T18:51:31.377Z,10.15
2022-12-31T18:54:00.971Z,11.43
2022-12-31T18:56:28.566Z,9.95
2022-12-31T18:58:55.667Z,7.10
2022-12-31T19:01:32.556Z,10.45
2022-12-31T19:04:27.887Z,7.82
2022-12-31T19:06:56.478Z,12.40
2022-12-31T19:09:44.527Z,8.98
2022-12-31T19:12:14.274Z,10.68
2022-12-31T19:14:41.114Z,16.75
2022-12-31T19:19:35.005Z,13.90
2022-12-31T19:22:02.625Z,7.55
2022-12-31T19:24:29.633Z,9.60
2022-12-31T19:26:56.472Z,9.70
2022-12-31T19:29:26.742Z,7.05
2022-12-31T19:31:54.620Z,10.68
2022-12-31T19:34:21.849Z,10.00
2022-12-31T19:36:48.626Z,12.35
2022-12-31T19:39:20.140Z,14.82
2022-12-31T19:41:54.660Z,7.85
2022-12-31T19:44:25.396Z,6.97
2022-12-31T19:46:52.279Z,11.60
2022-12-31T19:49:19.291Z,13.13
2022-12-31T19:51:46.042Z,9.43
2022-12-31T19:54:13.780Z,13.93
2022-12-31T19:56:40.708Z,8.52
2022-12-31T19:59:10.179Z,9.15
2022-12-31T20:01:37.365Z,11.43
2022-12-31T20:04:04.750Z,8.35
2022-12-31T20:06:31.822Z,22.25
2022-12-31T20:08:58.757Z,24.38
2022-12-31T20:11:25.833Z,7.88
2022-12-31T20:13:54.003Z,10.38
2022-12-31T20:16:26.853Z,8.90
2022-12-31T20:18:54.941Z,10.68
2022-12-31T20:21:26.934Z,10.13
2022-12-31T20:26:24.331Z,8.43
2022-12-31T20:28:52.065Z,12.57
2022-12-31T20:31:24.813Z,9.95
2022-12-31T20:33:54.120Z,11.15
2022-12-31T20:36:22.021Z,16.27
2022-12-31T20:38:49.954Z,10.23
2022-12-31T20:41:21.337Z,8.82
2022-12-31T20:43:49.499Z,13.18
2022-12-31T20:46:24.441Z,11.60
2022-12-31T20:48:54.234Z,9.82
2022-12-31T20:51:23.003Z,8.60
2022-12-31T20:53:55.955Z,8.93
2022-12-31T20:56:29.154Z,7.35
2022-12-31T20:58:56.519Z,11.95
2022-12-31T21:01:25.507Z,13.20
2022-12-31T21:04:04.898Z,11.52
2022-12-31T21:06:33.800Z,11.68
2022-12-31T21:09:03.924Z,10.95
2022-12-31T21:11:49.634Z,13.40
2022-12-31T21:14:16.648Z,11.88
2022-12-31T21:16:43.645Z,14.50
2022-12-31T21:19:10.514Z,12.18
2022-12-31T21:21:37.799Z,15.98
2022-12-31T21:24:05.119Z,13.40
2022-12-31T21:26:32.515Z,12.13
2022-12-31T21:28:59.368Z,15.55
2022-12-31T21:31:26.569Z,10.70
2022-12-31T21:33:53.458Z,10.27
2022-12-31T21:36:20.210Z,12.52
2022-12-31T21:38:47.029Z,15.73
2022-12-31T21:41:34.155Z,10.15
2022-12-31T21:44:01.882Z,10.38
2022-12-31T21:46:28.956Z,12.93
2022-12-31T21:49:00.173Z,8.40
2022-12-31T21:51:30.083Z,10.80
2022-12-31T21:53:57.275Z,10.68
2022-12-31T21:56:24.704Z,10.57
2022-12-31T21:59:16.891Z,9.40
2022-12-31T22:02:02.801Z,11.60
2022-12-31T22:07:17.386Z,9.52
2022-12-31T22:09:44.168Z,10.43
2022-12-31T22:12:10.953Z,11.15
2022-12-31T22:14:37.729Z,10.48
2022-12-31T22:17:04.549Z,11.13
2022-12-31T22:19:31.347Z,9.20
2022-12-31T22:21:58.124Z,12.88
2022-12-31T22:24:25.045Z,11.73
2022-12-31T22:26:54.163Z,9.95
2022-12-31T22:29:21.555Z,10.00
2022-12-31T22:31:48.331Z,6.30
2022-12-31T22:34:15.482Z,10.98
2022-12-31T22:36:42.329Z,11.35
2022-12-31T22:39:43.847Z,9.20
2022-12-31T22:42:02.882Z,13.00
2022-12-31T22:44:29.706Z,9.20
2022-12-31T22:46:56.587Z,13.45
2022-12-31T22:49:23.481Z,18.95
2022-12-31T22:51:55.826Z,12.43
2022-12-31T22:54:25.701Z,26.60
2022-12-31T22:56:52.719Z,12.85
2022-12-31T22:59:19.609Z,20.55
2022-12-31T23:01:46.744Z,11.32
2022-12-31T23:04:19.046Z,129.35
2022-12-31T23:06:45.866Z,38.03
2022-12-31T23:09:34.677Z,63.22
2022-12-31T23:12:02.881Z,66.38
2022-12-31T23:14:48.075Z,58.35
2022-12-31T23:17:38.267Z,62.15
2022-12-31T23:20:29.551Z,119.90
2022-12-31T23:23:11.692Z,54.97
2022-12-31T23:25:43.338Z,42.40
2022-12-31T23:28:17.260Z,35.60
2022-12-31T23:30:44.582Z,30.00
2022-12-31T23:33:18.832Z,32.70
2022-12-31T23:35:45.776Z,48.60
2022-12-31T23:38:13.315Z,33.33
2022-12-31T23:40:40.188Z,33.90
2022-12-31T23:43:08.939Z,36.90
2022-12-31T23:45:36.983Z,73.22
2022-12-31T23:48:04.264Z,43.80
2022-12-31T23:50:31.208Z,33.05
2022-12-31T23:52:58.024Z,56.83
2022-12-31T23:55:24.811Z,42.30
2022-12-31T23:57:51.622Z,33.13
